Time;durP1;ratioP1;P1;durP2;ratioP2;P2;SDS_P1;SDS_P2;PMS_P1;PMS_P2;Temp;Humidity;BMP_temperature;BMP_pressure;BME280_temperature;BME280_humidity;BME280_pressure;Samples;Min_cycle;Max_cycle;Signal;HPM_P1;HPM_P2
2023/01/16 00:06:36;;;;;;;11.27;8.63;;;;;;;21.31;56.26;99655.59;20908769;28;20048;-82
2023/01/16 00:16:36;;;;;;;11.45;8.55;;;;;;;21.29;56.21;99649.66;20911408;28;20468;-84
2023/01/16 00:26:37;;;;;;;12.48;9.23;;;;;;;21.28;55.96;99651.44;20907079;28;20039;-83
2023/01/16 00:36:39;;;;;;;11.15;8.35;;;;;;;21.26;56.02;99632.31;20917737;28;20389;-82
2023/01/16 00:46:40;;;;;;;12.10;8.10;;;;;;;21.24;55.85;99626.34;20911972;28;20044;-82
2023/01/16 00:56:41;;;;;;;10.82;7.53;;;;;;;21.22;55.88;99625.66;20904918;28;20049;-82
2023/01/16 01:06:41;;;;;;;9.68;7.53;;;;;;;21.22;56.19;99620.38;20902647;28;20044;-81
2023/01/16 01:16:42;;;;;;;9.75;7.43;;;;;;;21.21;55.87;99615.28;20927974;28;20041;-82
2023/01/16 01:26:42;;;;;;;10.77;7.72;;;;;;;21.19;55.99;99609.28;20924585;28;20037;-82
2023/01/16 01:36:42;;;;;;;9.40;7.13;;;;;;;21.19;55.97;99596.13;20929707;28;20047;-82
2023/01/16 01:46:46;;;;;;;9.80;7.15;;;;;;;21.15;56.23;99577.16;20934257;28;20080;-82
2023/01/16 01:56:53;;;;;;;9.38;7.00;;;;;;;21.15;56.16;99589.50;20914792;28;20052;-82
2023/01/16 02:06:56;;;;;;;9.38;6.07;;;;;;;21.16;55.94;99580.63;20937484;28;20105;-82
2023/01/16 02:27:35;;;;;;;8.65;6.28;;;;;;;21.10;56.15;99553.03;20919291;28;20040;-82
2023/01/16 02:37:57;;;;;;;7.82;6.07;;;;;;;21.08;56.02;99536.56;20940077;28;20049;-83
2023/01/16 02:48:10;;;;;;;7.93;6.07;;;;;;;21.07;55.68;99535.75;20908923;28;20125;-82
2023/01/16 02:58:14;;;;;;;7.50;5.60;;;;;;;21.06;55.97;99525.34;20906944;28;20044;-83
2023/01/16 03:08:44;;;;;;;6.40;5.28;;;;;;;21.03;55.82;99508.03;20910114;28;20059;-82
2023/01/16 03:19:12;;;;;;;7.45;5.60;;;;;;;21.03;55.79;99465.09;20914554;28;20609;-82
2023/01/16 03:30:03;;;;;;;6.10;4.95;;;;;;;21.01;55.75;99464.41;20929897;28;20074;-81
2023/01/16 03:40:11;;;;;;;6.63;5.53;;;;;;;21.00;55.53;99468.81;20802770;28;20049;-82
2023/01/16 03:50:14;;;;;;;6.13;4.88;;;;;;;20.99;55.92;99437.41;20915702;28;20068;-82
2023/01/16 04:00:16;;;;;;;6.27;5.20;;;;;;;20.98;55.76;99427.84;20906396;28;20048;-81
2023/01/16 04:10:21;;;;;;;6.83;5.47;;;;;;;20.96;56.09;99412.19;20912848;28;20057;-81
2023/01/16 04:20:23;;;;;;;5.95;4.82;;;;;;;20.95;55.96;99381.59;20914322;28;20963;-81
2023/01/16 04:30:23;;;;;;;6.00;4.82;;;;;;;20.94;55.73;99372.03;20936944;28;20053;-83
2023/01/16 04:40:24;;;;;;;5.65;4.65;;;;;;;20.92;55.53;99361.66;20907186;28;20102;-81
2023/01/16 04:50:25;;;;;;;7.25;4.95;;;;;;;20.92;55.61;99351.13;20909771;28;20037;-83
2023/01/16 05:00:25;;;;;;;7.95;5.45;;;;;;;20.94;55.57;99350.97;20914888;28;20082;-85
2023/01/16 05:10:25;;;;;;;6.43;4.43;;;;;;;20.95;56.02;99342.09;20930570;28;20049;-83
2023/01/16 05:20:26;;;;;;;10.38;4.78;;;;;;;20.97;57.06;99318.28;20932349;28;20044;-83
2023/01/16 05:30:26;;;;;;;13.38;5.43;;;;;;;21.06;58.14;99323.50;20928849;28;20036;-82
2023/01/16 05:40:27;;;;;;;19.13;6.32;;;;;;;21.15;57.56;99337.59;20915570;28;20171;-82
2023/01/16 05:50:27;;;;;;;20.75;6.43;;;;;;;21.22;57.56;99330.78;20913377;28;20098;-80
2023/01/16 06:00:28;;;;;;;14.77;5.65;;;;;;;21.31;57.02;99334.34;20915068;28;20072;-84
2023/01/16 06:10:28;;;;;;;19.77;10.63;;;;;;;21.26;51.25;99331.31;20923653;28;20060;-88
2023/01/16 06:20:29;;;;;;;20.05;8.68;;;;;;;21.32;54.29;99322.03;20940918;28;20048;-83
2023/01/16 06:30:29;;;;;;;19.45;7.75;;;;;;;21.38;55.17;99311.72;20934397;28;20075;-92
2023/01/16 06:40:29;;;;;;;15.30;6.35;;;;;;;21.48;55.84;99289.78;20952255;28;20072;-85
2023/01/16 06:50:31;;;;;;;13.77;7.55;;;;;;;21.49;54.05;99280.91;20920237;28;20040;-85
2023/01/16 07:00:32;;;;;;;14.82;7.07;;;;;;;21.57;55.48;99286.31;20925774;28;20176;-85
2023/01/16 07:10:33;;;;;;;11.50;6.50;;;;;;;21.61;55.31;99287.66;20917295;28;20073;-85
2023/01/16 07:30:53;;;;;;;12.48;5.82;;;;;;;21.70;56.00;99286.78;20936462;28;20056;-86
2023/01/16 07:40:53;;;;;;;11.55;6.50;;;;;;;21.72;55.40;99266.34;20931085;28;20219;-85
2023/01/16 07:50:56;;;;;;;9.20;5.22;;;;;;;21.75;55.50;99260.81;20942422;28;20064;-85
2023/01/16 08:00:57;;;;;;;10.18;6.10;;;;;;;21.78;55.74;99241.22;20911930;28;20044;-85
2023/01/16 08:11:34;;;;;;;8.77;5.50;;;;;;;21.79;55.14;99213.06;20933759;28;20037;-85
2023/01/16 08:21:20;;;;;;;;;;;;;;;21.79;55.11;99178.81;20931568;28;20062;-86
2023/01/16 08:31:20;;;;;;;9.23;5.15;;;;;;;21.83;54.94;99167.00;20943790;28;19923;-86
2023/01/16 08:51:41;;;;;;;9.90;6.03;;;;;;;21.83;54.44;99127.47;20939093;28;20040;-86
2023/01/16 09:01:42;;;;;;;13.18;8.45;;;;;;;21.81;53.91;99098.63;20946197;28;20072;-86
2023/01/16 09:22:07;;;;;;;15.05;7.82;;;;;;;21.79;54.13;99040.00;20949827;28;20045;-89
2023/01/16 09:32:08;;;;;;;16.65;7.40;;;;;;;21.78;55.07;99019.91;20946527;28;20048;-83
2023/01/16 10:03:29;;;;;;;34.35;9.80;;;;;;;21.60;52.92;98940.94;20940852;28;20067;-84
2023/01/16 10:13:38;;;;;;;28.17;9.18;;;;;;;21.61;54.59;98915.44;20937455;28;20078;-84
2023/01/16 10:24:06;;;;;;;22.40;10.15;;;;;;;21.64;54.11;98892.22;20947397;28;20094;-83
2023/01/16 10:34:24;;;;;;;30.15;9.95;;;;;;;21.71;54.00;98869.50;20920519;28;20056;-85
2023/01/16 10:54:49;;;;;;;28.25;12.32;;;;;;;21.61;50.07;98825.88;20917514;28;20049;-85
2023/01/16 11:04:52;;;;;;;26.30;12.98;;;;;;;21.63;50.23;98800.19;20910376;28;20061;-83
2023/01/16 11:25:17;;;;;;;20.23;10.45;;;;;;;21.60;51.29;98756.56;20905284;28;20041;-85
2023/01/16 11:35:18;;;;;;;17.10;9.40;;;;;;;21.60;52.59;98732.84;20930857;28;20062;-85
2023/01/16 11:55:52;;;;;;;16.02;9.13;;;;;;;21.61;53.17;98686.28;20925885;28;20053;-85
2023/01/16 12:06:08;;;;;;;16.17;8.80;;;;;;;21.59;53.07;98660.06;20917895;28;20532;-85
2023/01/16 12:16:29;;;;;;;16.58;9.10;;;;;;;21.59;53.00;98637.22;20929816;28;20048;-84
2023/01/16 12:26:38;;;;;;;16.48;9.40;;;;;;;21.61;52.96;98602.00;20929649;28;20442;-87
2023/01/16 12:36:41;;;;;;;20.45;10.05;;;;;;;21.60;52.86;98590.63;20920559;28;20049;-86
2023/01/16 12:47:17;;;;;;;14.63;9.85;;;;;;;21.61;52.54;98565.94;20931823;28;20099;-85
2023/01/16 12:57:42;;;;;;;14.73;9.60;;;;;;;21.63;52.61;98548.16;20922037;28;20080;-86
2023/01/16 13:07:52;;;;;;;14.40;9.00;;;;;;;21.64;52.90;98543.69;20926724;28;20055;-89
2023/01/16 13:18:04;;;;;;;13.23;8.98;;;;;;;21.66;52.89;98525.94;20953746;28;20091;-86
2023/01/16 13:28:26;;;;;;;15.03;9.23;;;;;;;21.66;52.81;98515.41;20960524;28;20118;-85
2023/01/16 13:38:58;;;;;;;13.77;9.23;;;;;;;21.65;52.70;98516.38;20934743;28;20059;-85
2023/01/16 13:49:03;;;;;;;15.87;9.50;;;;;;;21.66;52.76;98515.41;20935986;28;20037;-86
2023/01/16 13:59:07;;;;;;;16.13;8.80;;;;;;;21.68;53.14;98508.13;20942949;28;20071;-84
2023/01/16 14:09:17;;;;;;;16.85;8.68;;;;;;;21.67;52.65;98488.88;20949204;28;20133;-85
2023/01/16 14:19:22;;;;;;;13.50;9.10;;;;;;;21.67;52.32;98482.81;20948488;28;20063;-84
2023/01/16 14:29:27;;;;;;;12.13;8.45;;;;;;;21.67;52.87;98464.38;20923558;28;20037;-84
2023/01/16 14:39:46;;;;;;;12.45;8.40;;;;;;;21.65;52.74;98435.53;20911614;28;20141;-84
2023/01/16 15:00:18;;;;;;;11.70;8.27;;;;;;;21.64;50.95;98398.84;20926887;28;20430;-84
2023/01/16 15:10:37;;;;;;;11.82;8.27;;;;;;;21.62;51.44;98395.53;20922207;28;21665;-83
2023/01/16 15:31:00;;;;;;;12.73;8.02;;;;;;;21.57;52.72;98348.69;20925828;28;20036;-83
2023/01/16 15:41:03;;;;;;;15.30;8.10;;;;;;;21.57;53.11;98361.84;20902515;28;20062;-80
2023/01/16 15:51:08;;;;;;;12.02;7.90;;;;;;;21.52;52.61;98320.19;20886453;28;20102;-82
2023/01/16 16:01:10;;;;;;;11.10;7.35;;;;;;;21.54;52.86;98333.97;20873718;28;20117;-78
2023/01/16 16:22:47;;;;;;;14.57;7.13;;;;;;;21.54;52.43;98325.28;20898144;28;20135;-80
2023/01/16 16:32:13;;;;;;;9.80;7.28;;;;;;;21.52;52.21;98307.03;20889224;28;20086;-79
2023/01/16 16:42:26;;;;;;;13.60;7.07;;;;;;;21.48;52.42;98282.00;20889933;28;20051;-84
2023/01/16 16:52:33;;;;;;;9.43;6.72;;;;;;;21.47;52.39;98261.97;20898809;27;20618;-80
2023/01/16 17:02:33;;;;;;;9.48;6.93;;;;;;;21.49;52.59;98267.84;20912370;28;20048;-81
2023/01/16 17:12:38;;;;;;;10.75;6.30;;;;;;;21.49;52.63;98269.69;20906443;28;20045;-82
2023/01/16 17:22:39;;;;;;;10.30;6.47;;;;;;;21.47;52.83;98261.13;20910542;28;20033;-81
2023/01/16 17:32:40;;;;;;;9.00;6.07;;;;;;;21.47;52.92;98263.75;20913293;28;20638;-82
2023/01/16 17:53:00;;;;;;;10.90;6.47;;;;;;;21.53;52.85;98265.69;20917675;28;20040;-86
2023/01/16 18:03:00;;;;;;;13.43;5.95;;;;;;;21.49;52.88;98243.34;20913852;28;20039;-85
2023/01/16 18:23:21;;;;;;;18.27;8.73;;;;;;;21.49;53.75;98214.38;20914328;28;20997;-83
2023/01/16 18:33:22;;;;;;;14.60;8.07;;;;;;;21.49;54.04;98209.94;20917660;28;20048;-86
2023/01/16 19:04:07;;;;;;;17.48;8.00;;;;;;;21.48;55.15;98207.47;20918079;28;20068;-83
2023/01/16 19:14:10;;;;;;;14.32;7.07;;;;;;;21.47;55.21;98201.41;20925381;28;20051;-83
2023/01/16 19:24:15;;;;;;;15.70;6.82;;;;;;;21.47;54.78;98193.50;20929732;28;20055;-84
2023/01/16 19:34:16;;;;;;;14.10;7.05;;;;;;;21.47;54.37;98182.97;20918938;28;20037;-87
2023/01/16 19:54:36;;;;;;;14.55;7.38;;;;;;;21.39;54.20;98175.91;20922794;28;20045;-90
2023/01/16 20:04:40;;;;;;;16.33;6.70;;;;;;;21.41;54.16;98176.56;20935324;28;20091;-88
2023/01/16 20:14:42;;;;;;;17.33;8.10;;;;;;;21.26;52.47;98162.50;20940884;28;20052;-89
2023/01/16 20:24:43;;;;;;;13.63;7.05;;;;;;;21.25;52.74;98177.50;20959028;28;20046;-89
2023/01/16 20:34:44;;;;;;;11.30;6.65;;;;;;;21.28;52.58;98163.97;20962379;28;20115;-89
2023/01/16 20:55:04;;;;;;;12.38;6.70;;;;;;;21.31;53.39;98154.91;20972832;28;20151;-91
2023/01/16 21:05:05;;;;;;;13.80;6.45;;;;;;;21.30;53.01;98131.41;20974534;28;20114;-91
2023/01/16 21:15:06;;;;;;;9.05;5.85;;;;;;;21.29;53.23;98114.78;20969279;28;20053;-91
2023/01/16 21:25:07;;;;;;;11.30;6.57;;;;;;;21.28;53.23;98119.22;20976541;28;20049;-89
2023/01/16 21:35:10;;;;;;;7.88;5.47;;;;;;;21.28;53.29;98134.22;20967143;28;20384;-88
2023/01/16 21:55:31;;;;;;;11.25;6.20;;;;;;;21.26;53.60;98133.56;20941809;28;20045;-86
2023/01/16 22:05:34;;;;;;;8.38;6.03;;;;;;;21.25;54.06;98124.00;20943264;28;20052;-88
2023/01/16 22:25:59;;;;;;;9.73;5.80;;;;;;;21.21;54.14;98141.97;20924763;28;20052;-88
2023/01/16 22:36:02;;;;;;;8.43;5.53;;;;;;;21.22;53.95;98130.44;20931519;28;20094;-88
2023/01/16 22:46:21;;;;;;;8.30;5.22;;;;;;;21.21;54.31;98126.19;20949740;28;20051;-88
2023/01/16 22:56:21;;;;;;;7.40;5.20;;;;;;;21.19;54.50;98124.72;20946431;28;20084;-91
2023/01/16 23:06:23;;;;;;;7.75;4.90;;;;;;;21.16;54.18;98096.94;20938171;28;20045;-90
2023/01/16 23:16:25;;;;;;;8.43;5.63;;;;;;;21.11;54.66;98073.78;20947076;28;20080;-90
2023/01/16 23:26:26;;;;;;;10.50;5.83;;;;;;;21.09;54.84;98048.63;20939410;28;20040;-88
2023/01/16 23:36:28;;;;;;;7.15;4.90;;;;;;;21.05;54.64;98048.16;20945041;28;20060;-86
2023/01/16 23:46:40;;;;;;;7.63;5.33;;;;;;;21.04;54.64;98040.44;20939104;28;20048;-89
2023/01/16 23:56:45;;;;;;;8.53;5.73;;;;;;;21.02;54.75;98030.09;20935476;28;20057;-89
